sensor_id;sensor_type;location;lat;lon;timestamp;P1;durP1;ratioP1;P2;durP2;ratioP2
70132;SDS011;57495;49.922;7.966;2023-04-25T00:01:22;6.55;;;3.45;;
70132;SDS011;57495;49.922;7.966;2023-04-25T00:03:24;6.68;;;3.97;;
70132;SDS011;57495;49.922;7.966;2023-04-25T00:05:26;7.37;;;4.00;;
70132;SDS011;57495;49.922;7.966;2023-04-25T00:07:29;11.38;;;4.13;;
70132;SDS011;57495;49.922;7.966;2023-04-25T00:09:31;6.63;;;3.15;;
70132;SDS011;57495;49.922;7.966;2023-04-25T00:11:34;9.13;;;4.03;;
70132;SDS011;57495;49.922;7.966;2023-04-25T00:13:36;7.13;;;3.75;;
70132;SDS011;57495;49.922;7.966;2023-04-25T00:15:41;8.23;;;4.00;;
70132;SDS011;57495;49.922;7.966;2023-04-25T00:17:43;9.05;;;4.05;;
70132;SDS011;57495;49.922;7.966;2023-04-25T00:19:45;7.60;;;3.83;;
70132;SDS011;57495;49.922;7.966;2023-04-25T00:21:47;7.03;;;3.58;;
70132;SDS011;57495;49.922;7.966;2023-04-25T00:23:49;7.78;;;4.20;;
70132;SDS011;57495;49.922;7.966;2023-04-25T00:25:50;7.53;;;3.70;;
70132;SDS011;57495;49.922;7.966;2023-04-25T00:27:53;7.28;;;3.85;;
70132;SDS011;57495;49.922;7.966;2023-04-25T00:29:54;7.65;;;3.88;;
70132;SDS011;57495;49.922;7.966;2023-04-25T00:31:56;7.68;;;3.60;;
70132;SDS011;57495;49.922;7.966;2023-04-25T00:33:57;7.05;;;3.55;;
70132;SDS011;57495;49.922;7.966;2023-04-25T00:35:59;6.83;;;3.70;;
70132;SDS011;57495;49.922;7.966;2023-04-25T00:38:00;6.50;;;3.70;;
70132;SDS011;57495;49.922;7.966;2023-04-25T00:40:02;7.28;;;4.00;;
70132;SDS011;57495;49.922;7.966;2023-04-25T00:42:07;8.10;;;3.85;;
70132;SDS011;57495;49.922;7.966;2023-04-25T00:44:10;7.68;;;3.78;;
70132;SDS011;57495;49.922;7.966;2023-04-25T00:46:13;8.40;;;4.13;;
70132;SDS011;57495;49.922;7.966;2023-04-25T00:48:14;6.82;;;3.85;;
70132;SDS011;57495;49.922;7.966;2023-04-25T00:50:16;9.45;;;4.03;;
70132;SDS011;57495;49.922;7.966;2023-04-25T00:52:17;6.90;;;3.70;;
70132;SDS011;57495;49.922;7.966;2023-04-25T00:54:19;6.25;;;3.58;;
70132;SDS011;57495;49.922;7.966;2023-04-25T00:56:20;7.43;;;4.10;;
70132;SDS011;57495;49.922;7.966;2023-04-25T00:58:22;7.95;;;4.20;;
70132;SDS011;57495;49.922;7.966;2023-04-25T01:00:25;8.82;;;4.10;;
70132;SDS011;57495;49.922;7.966;2023-04-25T01:02:26;7.53;;;3.70;;
70132;SDS011;57495;49.922;7.966;2023-04-25T01:04:28;6.35;;;3.45;;
70132;SDS011;57495;49.922;7.966;2023-04-25T01:06:29;6.67;;;3.17;;
70132;SDS011;57495;49.922;7.966;2023-04-25T01:08:32;7.00;;;3.78;;
70132;SDS011;57495;49.922;7.966;2023-04-25T01:10:35;6.88;;;3.63;;
70132;SDS011;57495;49.922;7.966;2023-04-25T01:12:37;9.30;;;3.83;;
70132;SDS011;57495;49.922;7.966;2023-04-25T01:14:38;6.82;;;3.63;;
70132;SDS011;57495;49.922;7.966;2023-04-25T01:16:41;9.30;;;3.43;;
70132;SDS011;57495;49.922;7.966;2023-04-25T01:18:45;6.28;;;3.40;;
70132;SDS011;57495;49.922;7.966;2023-04-25T01:20:47;6.53;;;3.30;;
70132;SDS011;57495;49.922;7.966;2023-04-25T01:22:52;7.03;;;3.53;;
70132;SDS011;57495;49.922;7.966;2023-04-25T01:24:55;7.05;;;3.40;;
70132;SDS011;57495;49.922;7.966;2023-04-25T01:26:56;6.70;;;3.37;;
70132;SDS011;57495;49.922;7.966;2023-04-25T01:29:00;6.38;;;3.42;;
70132;SDS011;57495;49.922;7.966;2023-04-25T01:31:01;6.25;;;3.45;;
70132;SDS011;57495;49.922;7.966;2023-04-25T01:33:03;5.90;;;3.30;;
70132;SDS011;57495;49.922;7.966;2023-04-25T01:35:06;6.75;;;3.60;;
70132;SDS011;57495;49.922;7.966;2023-04-25T01:37:09;6.27;;;3.43;;
70132;SDS011;57495;49.922;7.966;2023-04-25T01:39:12;7.75;;;3.10;;
70132;SDS011;57495;49.922;7.966;2023-04-25T01:41:14;7.78;;;3.42;;
70132;SDS011;57495;49.922;7.966;2023-04-25T01:43:17;6.15;;;3.38;;
70132;SDS011;57495;49.922;7.966;2023-04-25T01:45:18;6.78;;;3.72;;
70132;SDS011;57495;49.922;7.966;2023-04-25T01:47:19;7.57;;;3.80;;
70132;SDS011;57495;49.922;7.966;2023-04-25T01:49:21;6.18;;;3.58;;
70132;SDS011;57495;49.922;7.966;2023-04-25T01:51:23;6.65;;;3.45;;
70132;SDS011;57495;49.922;7.966;2023-04-25T01:53:25;6.53;;;3.20;;
70132;SDS011;57495;49.922;7.966;2023-04-25T01:55:28;6.63;;;3.38;;
70132;SDS011;57495;49.922;7.966;2023-04-25T01:57:29;6.93;;;3.60;;
70132;SDS011;57495;49.922;7.966;2023-04-25T01:59:30;5.93;;;3.25;;
70132;SDS011;57495;49.922;7.966;2023-04-25T02:01:31;5.97;;;3.00;;
70132;SDS011;57495;49.922;7.966;2023-04-25T02:03:34;8.77;;;3.50;;
70132;SDS011;57495;49.922;7.966;2023-04-25T02:05:35;6.87;;;3.67;;
70132;SDS011;57495;49.922;7.966;2023-04-25T02:07:37;9.10;;;3.97;;
70132;SDS011;57495;49.922;7.966;2023-04-25T02:09:39;8.15;;;3.85;;
70132;SDS011;57495;49.922;7.966;2023-04-25T02:11:42;6.78;;;3.78;;
70132;SDS011;57495;49.922;7.966;2023-04-25T02:13:43;6.82;;;3.70;;
70132;SDS011;57495;49.922;7.966;2023-04-25T02:15:44;7.60;;;4.00;;
70132;SDS011;57495;49.922;7.966;2023-04-25T02:17:46;7.30;;;4.40;;
70132;SDS011;57495;49.922;7.966;2023-04-25T02:19:48;7.45;;;3.92;;
70132;SDS011;57495;49.922;7.966;2023-04-25T02:21:50;7.78;;;4.05;;
70132;SDS011;57495;49.922;7.966;2023-04-25T02:23:51;7.40;;;3.83;;
70132;SDS011;57495;49.922;7.966;2023-04-25T02:25:53;6.97;;;3.67;;
70132;SDS011;57495;49.922;7.966;2023-04-25T02:27:56;8.88;;;3.58;;
70132;SDS011;57495;49.922;7.966;2023-04-25T02:29:58;6.80;;;3.95;;
70132;SDS011;57495;49.922;7.966;2023-04-25T02:31:59;7.50;;;4.10;;
70132;SDS011;57495;49.922;7.966;2023-04-25T02:34:00;8.75;;;3.92;;
70132;SDS011;57495;49.922;7.966;2023-04-25T02:36:03;6.13;;;3.47;;
70132;SDS011;57495;49.922;7.966;2023-04-25T02:38:04;10.73;;;3.65;;
70132;SDS011;57495;49.922;7.966;2023-04-25T02:40:06;6.95;;;3.60;;
70132;SDS011;57495;49.922;7.966;2023-04-25T02:42:09;7.50;;;3.90;;
70132;SDS011;57495;49.922;7.966;2023-04-25T02:44:11;7.22;;;3.90;;
70132;SDS011;57495;49.922;7.966;2023-04-25T02:46:13;8.17;;;4.10;;
70132;SDS011;57495;49.922;7.966;2023-04-25T02:48:14;7.95;;;3.67;;
70132;SDS011;57495;49.922;7.966;2023-04-25T02:50:15;6.65;;;3.50;;
70132;SDS011;57495;49.922;7.966;2023-04-25T02:52:18;7.25;;;3.63;;
70132;SDS011;57495;49.922;7.966;2023-04-25T02:54:21;6.28;;;3.58;;
70132;SDS011;57495;49.922;7.966;2023-04-25T02:56:22;8.07;;;4.27;;
70132;SDS011;57495;49.922;7.966;2023-04-25T02:58:26;8.40;;;3.95;;
70132;SDS011;57495;49.922;7.966;2023-04-25T03:00:28;6.35;;;3.55;;
70132;SDS011;57495;49.922;7.966;2023-04-25T03:02:30;6.72;;;3.15;;
70132;SDS011;57495;49.922;7.966;2023-04-25T03:04:31;8.32;;;3.92;;
70132;SDS011;57495;49.922;7.966;2023-04-25T03:06:34;6.87;;;3.73;;
70132;SDS011;57495;49.922;7.966;2023-04-25T03:08:35;7.20;;;4.25;;
70132;SDS011;57495;49.922;7.966;2023-04-25T03:10:36;6.63;;;3.80;;
70132;SDS011;57495;49.922;7.966;2023-04-25T03:12:38;6.80;;;3.65;;
70132;SDS011;57495;49.922;7.966;2023-04-25T03:14:39;6.63;;;4.00;;
70132;SDS011;57495;49.922;7.966;2023-04-25T03:16:42;6.77;;;3.47;;
70132;SDS011;57495;49.922;7.966;2023-04-25T03:18:44;7.70;;;3.70;;
70132;SDS011;57495;49.922;7.966;2023-04-25T03:20:45;7.32;;;3.47;;
70132;SDS011;57495;49.922;7.966;2023-04-25T03:22:46;6.35;;;3.20;;
70132;SDS011;57495;49.922;7.966;2023-04-25T03:24:48;6.78;;;3.47;;
70132;SDS011;57495;49.922;7.966;2023-04-25T03:26:49;8.63;;;3.63;;
70132;SDS011;57495;49.922;7.966;2023-04-25T03:28:51;6.65;;;3.53;;
70132;SDS011;57495;49.922;7.966;2023-04-25T03:30:52;8.15;;;3.38;;
70132;SDS011;57495;49.922;7.966;2023-04-25T03:32:55;8.90;;;3.80;;
70132;SDS011;57495;49.922;7.966;2023-04-25T03:34:56;7.88;;;3.40;;
70132;SDS011;57495;49.922;7.966;2023-04-25T03:36:58;6.60;;;3.37;;
70132;SDS011;57495;49.922;7.966;2023-04-25T03:39:00;7.10;;;3.70;;
70132;SDS011;57495;49.922;7.966;2023-04-25T03:41:02;6.30;;;3.80;;
70132;SDS011;57495;49.922;7.966;2023-04-25T03:43:04;7.28;;;4.03;;
70132;SDS011;57495;49.922;7.966;2023-04-25T03:45:06;7.13;;;3.97;;
70132;SDS011;57495;49.922;7.966;2023-04-25T03:47:08;8.03;;;4.20;;
70132;SDS011;57495;49.922;7.966;2023-04-25T03:49:11;7.30;;;4.40;;
70132;SDS011;57495;49.922;7.966;2023-04-25T03:51:13;8.00;;;4.18;;
70132;SDS011;57495;49.922;7.966;2023-04-25T03:53:14;7.97;;;3.83;;
70132;SDS011;57495;49.922;7.966;2023-04-25T03:55:15;8.18;;;4.40;;
70132;SDS011;57495;49.922;7.966;2023-04-25T03:57:17;10.17;;;5.17;;
70132;SDS011;57495;49.922;7.966;2023-04-25T03:59:18;9.82;;;4.93;;
70132;SDS011;57495;49.922;7.966;2023-04-25T04:01:20;7.72;;;4.32;;
70132;SDS011;57495;49.922;7.966;2023-04-25T04:03:21;8.40;;;4.82;;
70132;SDS011;57495;49.922;7.966;2023-04-25T04:05:24;9.55;;;4.82;;
70132;SDS011;57495;49.922;7.966;2023-04-25T04:07:25;8.90;;;4.73;;
70132;SDS011;57495;49.922;7.966;2023-04-25T04:09:27;9.02;;;4.78;;
70132;SDS011;57495;49.922;7.966;2023-04-25T04:11:28;10.20;;;5.25;;
70132;SDS011;57495;49.922;7.966;2023-04-25T04:13:31;9.15;;;4.90;;
70132;SDS011;57495;49.922;7.966;2023-04-25T04:15:32;9.07;;;4.85;;
70132;SDS011;57495;49.922;7.966;2023-04-25T04:17:34;8.97;;;4.70;;
70132;SDS011;57495;49.922;7.966;2023-04-25T04:19:35;12.60;;;5.57;;
70132;SDS011;57495;49.922;7.966;2023-04-25T04:21:38;9.27;;;5.10;;
70132;SDS011;57495;49.922;7.966;2023-04-25T04:23:39;8.98;;;5.47;;
70132;SDS011;57495;49.922;7.966;2023-04-25T04:25:41;9.30;;;6.05;;
70132;SDS011;57495;49.922;7.966;2023-04-25T04:27:42;10.97;;;6.00;;
70132;SDS011;57495;49.922;7.966;2023-04-25T04:29:44;10.07;;;6.07;;
70132;SDS011;57495;49.922;7.966;2023-04-25T04:31:47;13.48;;;6.28;;
70132;SDS011;57495;49.922;7.966;2023-04-25T04:33:49;13.48;;;7.15;;
70132;SDS011;57495;49.922;7.966;2023-04-25T04:35:50;16.08;;;6.97;;
70132;SDS011;57495;49.922;7.966;2023-04-25T04:37:54;15.00;;;7.40;;
70132;SDS011;57495;49.922;7.966;2023-04-25T04:39:56;14.07;;;7.35;;
70132;SDS011;57495;49.922;7.966;2023-04-25T04:41:57;14.05;;;6.85;;
70132;SDS011;57495;49.922;7.966;2023-04-25T04:43:59;14.70;;;6.88;;
70132;SDS011;57495;49.922;7.966;2023-04-25T04:46:01;16.23;;;6.60;;
70132;SDS011;57495;49.922;7.966;2023-04-25T04:48:04;16.50;;;6.93;;
70132;SDS011;57495;49.922;7.966;2023-04-25T04:50:06;16.05;;;6.85;;
70132;SDS011;57495;49.922;7.966;2023-04-25T04:52:09;17.33;;;7.60;;
70132;SDS011;57495;49.922;7.966;2023-04-25T04:54:12;14.48;;;6.50;;
70132;SDS011;57495;49.922;7.966;2023-04-25T04:56:13;15.63;;;6.63;;
70132;SDS011;57495;49.922;7.966;2023-04-25T04:58:15;14.27;;;6.47;;
70132;SDS011;57495;49.922;7.966;2023-04-25T05:00:16;11.23;;;6.20;;
70132;SDS011;57495;49.922;7.966;2023-04-25T05:02:18;12.88;;;5.93;;
70132;SDS011;57495;49.922;7.966;2023-04-25T05:04:19;12.93;;;6.13;;
70132;SDS011;57495;49.922;7.966;2023-04-25T05:06:21;13.73;;;5.57;;
70132;SDS011;57495;49.922;7.966;2023-04-25T05:08:22;12.03;;;5.17;;
70132;SDS011;57495;49.922;7.966;2023-04-25T05:10:25;13.48;;;4.35;;
70132;SDS011;57495;49.922;7.966;2023-04-25T05:12:27;13.82;;;4.43;;
70132;SDS011;57495;49.922;7.966;2023-04-25T05:14:28;14.90;;;4.55;;
70132;SDS011;57495;49.922;7.966;2023-04-25T05:16:30;12.77;;;4.88;;
70132;SDS011;57495;49.922;7.966;2023-04-25T05:18:32;11.97;;;4.50;;
70132;SDS011;57495;49.922;7.966;2023-04-25T05:20:33;12.38;;;5.00;;
70132;SDS011;57495;49.922;7.966;2023-04-25T05:22:35;9.65;;;4.50;;
70132;SDS011;57495;49.922;7.966;2023-04-25T05:24:36;10.63;;;4.30;;
70132;SDS011;57495;49.922;7.966;2023-04-25T05:26:39;13.30;;;5.13;;
70132;SDS011;57495;49.922;7.966;2023-04-25T05:28:40;14.93;;;5.10;;
70132;SDS011;57495;49.922;7.966;2023-04-25T05:30:42;13.18;;;4.55;;
70132;SDS011;57495;49.922;7.966;2023-04-25T05:32:43;15.25;;;4.78;;
70132;SDS011;57495;49.922;7.966;2023-04-25T05:34:46;9.45;;;4.43;;
70132;SDS011;57495;49.922;7.966;2023-04-25T05:36:48;15.55;;;4.50;;
70132;SDS011;57495;49.922;7.966;2023-04-25T05:38:49;12.87;;;5.17;;
70132;SDS011;57495;49.922;7.966;2023-04-25T05:40:50;11.65;;;4.97;;
70132;SDS011;57495;49.922;7.966;2023-04-25T05:42:53;12.65;;;5.47;;
70132;SDS011;57495;49.922;7.966;2023-04-25T05:44:55;13.35;;;5.35;;
70132;SDS011;57495;49.922;7.966;2023-04-25T05:46:56;16.13;;;5.97;;
70132;SDS011;57495;49.922;7.966;2023-04-25T05:48:57;13.13;;;5.20;;
70132;SDS011;57495;49.922;7.966;2023-04-25T05:50:59;13.77;;;5.90;;
70132;SDS011;57495;49.922;7.966;2023-04-25T05:53:00;13.90;;;5.50;;
70132;SDS011;57495;49.922;7.966;2023-04-25T05:55:02;15.07;;;5.57;;
70132;SDS011;57495;49.922;7.966;2023-04-25T05:57:04;12.30;;;5.60;;
70132;SDS011;57495;49.922;7.966;2023-04-25T05:59:07;12.37;;;5.20;;
70132;SDS011;57495;49.922;7.966;2023-04-25T06:01:08;12.65;;;4.60;;
70132;SDS011;57495;49.922;7.966;2023-04-25T06:03:10;15.73;;;4.90;;
70132;SDS011;57495;49.922;7.966;2023-04-25T06:05:13;15.93;;;4.85;;
70132;SDS011;57495;49.922;7.966;2023-04-25T06:07:15;12.23;;;4.88;;
70132;SDS011;57495;49.922;7.966;2023-04-25T06:09:16;14.57;;;4.90;;
70132;SDS011;57495;49.922;7.966;2023-04-25T06:11:18;13.18;;;4.85;;
70132;SDS011;57495;49.922;7.966;2023-04-25T06:13:19;11.57;;;4.07;;
70132;SDS011;57495;49.922;7.966;2023-04-25T06:15:22;11.25;;;4.30;;
70132;SDS011;57495;49.922;7.966;2023-04-25T06:17:24;9.18;;;3.70;;
70132;SDS011;57495;49.922;7.966;2023-04-25T06:19:25;9.80;;;3.93;;
70132;SDS011;57495;49.922;7.966;2023-04-25T06:21:26;11.00;;;3.80;;
70132;SDS011;57495;49.922;7.966;2023-04-25T06:23:28;13.82;;;4.22;;
70132;SDS011;57495;49.922;7.966;2023-04-25T06:25:29;11.50;;;4.40;;
70132;SDS011;57495;49.922;7.966;2023-04-25T06:27:31;11.73;;;3.97;;
70132;SDS011;57495;49.922;7.966;2023-04-25T06:29:32;14.87;;;4.00;;
70132;SDS011;57495;49.922;7.966;2023-04-25T06:31:35;10.48;;;3.83;;
70132;SDS011;57495;49.922;7.966;2023-04-25T06:33:36;11.65;;;3.95;;
70132;SDS011;57495;49.922;7.966;2023-04-25T06:35:38;12.23;;;3.15;;
70132;SDS011;57495;49.922;7.966;2023-04-25T06:37:39;11.70;;;3.70;;
70132;SDS011;57495;49.922;7.966;2023-04-25T06:39:41;12.63;;;3.47;;
70132;SDS011;57495;49.922;7.966;2023-04-25T06:41:42;9.27;;;3.45;;
70132;SDS011;57495;49.922;7.966;2023-04-25T06:43:44;12.38;;;8.13;;
70132;SDS011;57495;49.922;7.966;2023-04-25T06:45:45;12.07;;;6.22;;
70132;SDS011;57495;49.922;7.966;2023-04-25T06:47:48;11.18;;;6.10;;
70132;SDS011;57495;49.922;7.966;2023-04-25T06:49:49;11.40;;;5.60;;
70132;SDS011;57495;49.922;7.966;2023-04-25T06:51:51;10.30;;;4.45;;
70132;SDS011;57495;49.922;7.966;2023-04-25T06:53:52;10.45;;;4.15;;
70132;SDS011;57495;49.922;7.966;2023-04-25T06:55:53;10.93;;;4.07;;
70132;SDS011;57495;49.922;7.966;2023-04-25T06:57:55;14.32;;;4.70;;
70132;SDS011;57495;49.922;7.966;2023-04-25T06:59:56;11.23;;;4.73;;
70132;SDS011;57495;49.922;7.966;2023-04-25T07:01:58;11.30;;;4.38;;
70132;SDS011;57495;49.922;7.966;2023-04-25T07:04:00;11.13;;;4.60;;
70132;SDS011;57495;49.922;7.966;2023-04-25T07:06:02;10.32;;;4.22;;
70132;SDS011;57495;49.922;7.966;2023-04-25T07:08:04;10.25;;;4.35;;
70132;SDS011;57495;49.922;7.966;2023-04-25T07:10:05;13.47;;;4.63;;
70132;SDS011;57495;49.922;7.966;2023-04-25T07:12:07;9.65;;;4.40;;
70132;SDS011;57495;49.922;7.966;2023-04-25T07:14:08;10.05;;;4.38;;
70132;SDS011;57495;49.922;7.966;2023-04-25T07:16:10;12.65;;;4.85;;
70132;SDS011;57495;49.922;7.966;2023-04-25T07:18:11;11.90;;;5.00;;
70132;SDS011;57495;49.922;7.966;2023-04-25T07:20:14;12.10;;;4.80;;
70132;SDS011;57495;49.922;7.966;2023-04-25T07:22:16;13.77;;;5.35;;
70132;SDS011;57495;49.922;7.966;2023-04-25T07:24:17;14.23;;;5.15;;
70132;SDS011;57495;49.922;7.966;2023-04-25T07:26:19;14.05;;;5.22;;
70132;SDS011;57495;49.922;7.966;2023-04-25T07:28:20;9.55;;;5.25;;
70132;SDS011;57495;49.922;7.966;2023-04-25T07:30:22;12.20;;;5.30;;
70132;SDS011;57495;49.922;7.966;2023-04-25T07:32:24;10.90;;;5.90;;
70132;SDS011;57495;49.922;7.966;2023-04-25T07:34:26;11.20;;;5.65;;
70132;SDS011;57495;49.922;7.966;2023-04-25T07:36:29;11.18;;;4.47;;
70132;SDS011;57495;49.922;7.966;2023-04-25T07:38:31;8.75;;;4.35;;
70132;SDS011;57495;49.922;7.966;2023-04-25T07:40:33;11.03;;;4.40;;
70132;SDS011;57495;49.922;7.966;2023-04-25T07:42:35;7.43;;;3.88;;
70132;SDS011;57495;49.922;7.966;2023-04-25T07:44:36;10.05;;;4.55;;
70132;SDS011;57495;49.922;7.966;2023-04-25T07:46:40;9.70;;;4.45;;
70132;SDS011;57495;49.922;7.966;2023-04-25T07:48:41;8.63;;;4.05;;
70132;SDS011;57495;49.922;7.966;2023-04-25T07:50:42;8.47;;;3.83;;
70132;SDS011;57495;49.922;7.966;2023-04-25T07:52:45;10.48;;;3.67;;
70132;SDS011;57495;49.922;7.966;2023-04-25T07:54:46;11.93;;;5.80;;
70132;SDS011;57495;49.922;7.966;2023-04-25T07:56:48;14.38;;;5.47;;
70132;SDS011;57495;49.922;7.966;2023-04-25T07:58:49;10.25;;;4.00;;
70132;SDS011;57495;49.922;7.966;2023-04-25T08:00:51;8.27;;;4.07;;
70132;SDS011;57495;49.922;7.966;2023-04-25T08:02:52;12.48;;;4.28;;
70132;SDS011;57495;49.922;7.966;2023-04-25T08:04:54;7.18;;;3.05;;
70132;SDS011;57495;49.922;7.966;2023-04-25T08:06:55;8.32;;;3.28;;
70132;SDS011;57495;49.922;7.966;2023-04-25T08:08:58;10.32;;;3.88;;
70132;SDS011;57495;49.922;7.966;2023-04-25T08:10:59;18.87;;;6.10;;
70132;SDS011;57495;49.922;7.966;2023-04-25T08:13:01;11.48;;;4.80;;
70132;SDS011;57495;49.922;7.966;2023-04-25T08:15:03;10.43;;;4.30;;
70132;SDS011;57495;49.922;7.966;2023-04-25T08:17:06;12.80;;;5.35;;
70132;SDS011;57495;49.922;7.966;2023-04-25T08:19:07;25.75;;;11.38;;
70132;SDS011;57495;49.922;7.966;2023-04-25T08:21:10;14.00;;;6.40;;
70132;SDS011;57495;49.922;7.966;2023-04-25T08:23:12;10.00;;;5.10;;
70132;SDS011;57495;49.922;7.966;2023-04-25T08:25:15;8.85;;;3.50;;
70132;SDS011;57495;49.922;7.966;2023-04-25T08:27:17;10.88;;;4.05;;
70132;SDS011;57495;49.922;7.966;2023-04-25T08:29:20;7.85;;;3.47;;
70132;SDS011;57495;49.922;7.966;2023-04-25T08:31:24;8.43;;;3.03;;
70132;SDS011;57495;49.922;7.966;2023-04-25T08:33:26;13.45;;;3.85;;
70132;SDS011;57495;49.922;7.966;2023-04-25T08:35:27;7.47;;;3.47;;
70132;SDS011;57495;49.922;7.966;2023-04-25T08:37:29;11.38;;;3.47;;
70132;SDS011;57495;49.922;7.966;2023-04-25T08:39:30;6.65;;;3.28;;
70132;SDS011;57495;49.922;7.966;2023-04-25T08:41:33;8.50;;;2.87;;
70132;SDS011;57495;49.922;7.966;2023-04-25T08:43:37;10.57;;;4.75;;
70132;SDS011;57495;49.922;7.966;2023-04-25T08:45:39;7.57;;;2.50;;
70132;SDS011;57495;49.922;7.966;2023-04-25T08:47:42;10.73;;;2.40;;
70132;SDS011;57495;49.922;7.966;2023-04-25T08:49:46;9.35;;;2.78;;
70132;SDS011;57495;49.922;7.966;2023-04-25T08:51:48;6.27;;;2.70;;
70132;SDS011;57495;49.922;7.966;2023-04-25T08:53:51;11.88;;;3.70;;
70132;SDS011;57495;49.922;7.966;2023-04-25T08:55:53;6.68;;;2.80;;
70132;SDS011;57495;49.922;7.966;2023-04-25T08:57:58;6.72;;;2.40;;
70132;SDS011;57495;49.922;7.966;2023-04-25T09:00:01;5.35;;;2.60;;
70132;SDS011;57495;49.922;7.966;2023-04-25T09:02:03;8.57;;;2.77;;
70132;SDS011;57495;49.922;7.966;2023-04-25T09:04:05;7.47;;;3.03;;
70132;SDS011;57495;49.922;7.966;2023-04-25T09:06:06;7.05;;;2.63;;
70132;SDS011;57495;49.922;7.966;2023-04-25T09:08:09;7.75;;;2.88;;
70132;SDS011;57495;49.922;7.966;2023-04-25T09:10:11;5.20;;;2.50;;
70132;SDS011;57495;49.922;7.966;2023-04-25T09:12:12;9.97;;;2.53;;
70132;SDS011;57495;49.922;7.966;2023-04-25T09:14:16;7.05;;;2.53;;
70132;SDS011;57495;49.922;7.966;2023-04-25T09:16:20;12.18;;;3.90;;
70132;SDS011;57495;49.922;7.966;2023-04-25T09:18:22;7.10;;;2.75;;
70132;SDS011;57495;49.922;7.966;2023-04-25T09:20:26;8.20;;;3.45;;
70132;SDS011;57495;49.922;7.966;2023-04-25T09:22:27;7.80;;;3.10;;
70132;SDS011;57495;49.922;7.966;2023-04-25T09:24:31;7.30;;;2.63;;
70132;SDS011;57495;49.922;7.966;2023-04-25T09:26:33;10.73;;;3.17;;
70132;SDS011;57495;49.922;7.966;2023-04-25T09:28:34;8.65;;;3.15;;
70132;SDS011;57495;49.922;7.966;2023-04-25T09:30:39;8.00;;;3.20;;
70132;SDS011;57495;49.922;7.966;2023-04-25T09:32:41;11.83;;;3.60;;
70132;SDS011;57495;49.922;7.966;2023-04-25T09:34:47;7.05;;;3.00;;
70132;SDS011;57495;49.922;7.966;2023-04-25T09:36:50;7.78;;;3.25;;
70132;SDS011;57495;49.922;7.966;2023-04-25T09:38:51;8.27;;;3.20;;
70132;SDS011;57495;49.922;7.966;2023-04-25T09:40:53;8.48;;;3.30;;
70132;SDS011;57495;49.922;7.966;2023-04-25T09:42:55;6.53;;;2.97;;
70132;SDS011;57495;49.922;7.966;2023-04-25T09:44:58;6.97;;;3.10;;
70132;SDS011;57495;49.922;7.966;2023-04-25T09:47:03;6.95;;;3.45;;
70132;SDS011;57495;49.922;7.966;2023-04-25T09:49:06;6.63;;;3.17;;
70132;SDS011;57495;49.922;7.966;2023-04-25T09:51:09;9.15;;;3.90;;
70132;SDS011;57495;49.922;7.966;2023-04-25T09:53:11;7.60;;;4.07;;
70132;SDS011;57495;49.922;7.966;2023-04-25T09:55:14;8.02;;;3.30;;
70132;SDS011;57495;49.922;7.966;2023-04-25T09:57:16;7.00;;;3.33;;
70132;SDS011;57495;49.922;7.966;2023-04-25T09:59:19;6.18;;;3.65;;
70132;SDS011;57495;49.922;7.966;2023-04-25T10:01:21;10.35;;;3.45;;
70132;SDS011;57495;49.922;7.966;2023-04-25T10:03:26;8.13;;;3.57;;
70132;SDS011;57495;49.922;7.966;2023-04-25T10:05:32;7.35;;;3.20;;
70132;SDS011;57495;49.922;7.966;2023-04-25T10:07:35;8.15;;;3.65;;
70132;SDS011;57495;49.922;7.966;2023-04-25T10:09:38;7.68;;;3.55;;
70132;SDS011;57495;49.922;7.966;2023-04-25T10:11:40;8.73;;;3.60;;
70132;SDS011;57495;49.922;7.966;2023-04-25T10:13:42;6.80;;;3.83;;
70132;SDS011;57495;49.922;7.966;2023-04-25T10:15:44;11.15;;;4.07;;
70132;SDS011;57495;49.922;7.966;2023-04-25T10:17:46;11.82;;;4.75;;
70132;SDS011;57495;49.922;7.966;2023-04-25T10:19:50;13.27;;;3.55;;
70132;SDS011;57495;49.922;7.966;2023-04-25T10:21:54;11.48;;;4.03;;
70132;SDS011;57495;49.922;7.966;2023-04-25T10:24:03;10.33;;;3.50;;
70132;SDS011;57495;49.922;7.966;2023-04-25T10:26:05;9.13;;;3.40;;
70132;SDS011;57495;49.922;7.966;2023-04-25T10:28:12;9.30;;;3.53;;
70132;SDS011;57495;49.922;7.966;2023-04-25T10:30:14;8.70;;;4.05;;
70132;SDS011;57495;49.922;7.966;2023-04-25T10:32:16;7.63;;;3.63;;
70132;SDS011;57495;49.922;7.966;2023-04-25T10:34:18;9.60;;;3.00;;
70132;SDS011;57495;49.922;7.966;2023-04-25T10:36:22;29.80;;;10.18;;
70132;SDS011;57495;49.922;7.966;2023-04-25T10:38:24;12.00;;;4.28;;
70132;SDS011;57495;49.922;7.966;2023-04-25T10:40:27;21.20;;;9.15;;
70132;SDS011;57495;49.922;7.966;2023-04-25T10:42:29;8.52;;;3.35;;
70132;SDS011;57495;49.922;7.966;2023-04-25T10:44:31;6.80;;;3.30;;
70132;SDS011;57495;49.922;7.966;2023-04-25T10:46:33;8.60;;;3.67;;
70132;SDS011;57495;49.922;7.966;2023-04-25T10:48:35;9.02;;;4.30;;
70132;SDS011;57495;49.922;7.966;2023-04-25T10:50:37;13.98;;;6.43;;
70132;SDS011;57495;49.922;7.966;2023-04-25T10:52:40;10.73;;;4.95;;
70132;SDS011;57495;49.922;7.966;2023-04-25T10:54:42;14.80;;;5.50;;
70132;SDS011;57495;49.922;7.966;2023-04-25T10:56:48;13.73;;;6.43;;
70132;SDS011;57495;49.922;7.966;2023-04-25T10:58:49;14.98;;;5.45;;
70132;SDS011;57495;49.922;7.966;2023-04-25T11:00:51;12.00;;;4.03;;
70132;SDS011;57495;49.922;7.966;2023-04-25T11:02:53;8.13;;;3.25;;
70132;SDS011;57495;49.922;7.966;2023-04-25T11:04:59;8.13;;;2.90;;
70132;SDS011;57495;49.922;7.966;2023-04-25T11:07:02;11.95;;;2.85;;
70132;SDS011;57495;49.922;7.966;2023-04-25T11:09:11;5.68;;;2.90;;
70132;SDS011;57495;49.922;7.966;2023-04-25T11:11:13;11.18;;;3.10;;
70132;SDS011;57495;49.922;7.966;2023-04-25T11:13:15;12.90;;;6.22;;
70132;SDS011;57495;49.922;7.966;2023-04-25T11:15:18;9.00;;;3.80;;
70132;SDS011;57495;49.922;7.966;2023-04-25T11:17:19;10.50;;;3.38;;
70132;SDS011;57495;49.922;7.966;2023-04-25T11:19:21;8.77;;;3.40;;
70132;SDS011;57495;49.922;7.966;2023-04-25T11:21:22;8.77;;;3.60;;
70132;SDS011;57495;49.922;7.966;2023-04-25T11:23:24;9.88;;;2.95;;
70132;SDS011;57495;49.922;7.966;2023-04-25T11:25:27;10.07;;;3.90;;
70132;SDS011;57495;49.922;7.966;2023-04-25T11:27:30;12.52;;;4.65;;
70132;SDS011;57495;49.922;7.966;2023-04-25T11:29:32;9.02;;;4.10;;
70132;SDS011;57495;49.922;7.966;2023-04-25T11:31:35;9.48;;;3.90;;
70132;SDS011;57495;49.922;7.966;2023-04-25T11:33:36;12.15;;;4.22;;
70132;SDS011;57495;49.922;7.966;2023-04-25T11:35:39;14.10;;;4.10;;
70132;SDS011;57495;49.922;7.966;2023-04-25T11:37:41;8.20;;;4.10;;
70132;SDS011;57495;49.922;7.966;2023-04-25T11:39:44;13.50;;;4.70;;
70132;SDS011;57495;49.922;7.966;2023-04-25T11:41:48;12.18;;;4.30;;
70132;SDS011;57495;49.922;7.966;2023-04-25T11:43:50;10.90;;;4.88;;
70132;SDS011;57495;49.922;7.966;2023-04-25T11:45:52;11.00;;;4.47;;
70132;SDS011;57495;49.922;7.966;2023-04-25T11:47:53;10.63;;;4.43;;
70132;SDS011;57495;49.922;7.966;2023-04-25T11:49:55;7.70;;;3.80;;
70132;SDS011;57495;49.922;7.966;2023-04-25T11:51:56;10.07;;;3.35;;
70132;SDS011;57495;49.922;7.966;2023-04-25T11:53:58;8.68;;;3.00;;
70132;SDS011;57495;49.922;7.966;2023-04-25T11:55:59;8.63;;;3.50;;
70132;SDS011;57495;49.922;7.966;2023-04-25T11:58:02;8.13;;;3.85;;
70132;SDS011;57495;49.922;7.966;2023-04-25T12:00:06;7.97;;;3.58;;
70132;SDS011;57495;49.922;7.966;2023-04-25T12:02:23;12.10;;;3.40;;
70132;SDS011;57495;49.922;7.966;2023-04-25T12:04:25;8.90;;;3.53;;
70132;SDS011;57495;49.922;7.966;2023-04-25T12:06:27;8.30;;;3.57;;
70132;SDS011;57495;49.922;7.966;2023-04-25T12:08:29;6.85;;;2.83;;
70132;SDS011;57495;49.922;7.966;2023-04-25T12:10:30;8.43;;;2.95;;
70132;SDS011;57495;49.922;7.966;2023-04-25T12:12:32;6.43;;;2.42;;